sensor_id;sensor_type;location;lat;lon;timestamp;P1;durP1;ratioP1;P2;durP2;ratioP2
2646;SDS011;1333;50.958;6.770;2024-01-15T00:01:16;27.40;;;12.07;;
2646;SDS011;1333;50.958;6.770;2024-01-15T00:03:42;16.53;;;10.77;;
2646;SDS011;1333;50.958;6.770;2024-01-15T00:06:07;21.60;;;11.53;;
2646;SDS011;1333;50.958;6.770;2024-01-15T00:08:33;22.40;;;13.80;;
2646;SDS011;1333;50.958;6.770;2024-01-15T00:10:58;31.20;;;12.87;;
2646;SDS011;1333;50.958;6.770;2024-01-15T00:13:24;29.17;;;11.80;;
2646;SDS011;1333;50.958;6.770;2024-01-15T00:15:49;18.40;;;10.90;;
2646;SDS011;1333;50.958;6.770;2024-01-15T00:18:15;23.10;;;10.50;;
2646;SDS011;1333;50.958;6.770;2024-01-15T00:20:40;20.60;;;11.17;;
2646;SDS011;1333;50.958;6.770;2024-01-15T00:23:06;27.87;;;11.97;;
2646;SDS011;1333;50.958;6.770;2024-01-15T00:25:31;18.87;;;10.60;;
2646;SDS011;1333;50.958;6.770;2024-01-15T00:27:57;32.27;;;11.37;;
2646;SDS011;1333;50.958;6.770;2024-01-15T00:30:22;26.47;;;11.60;;
2646;SDS011;1333;50.958;6.770;2024-01-15T00:32:48;21.70;;;10.27;;
2646;SDS011;1333;50.958;6.770;2024-01-15T00:35:14;27.33;;;10.57;;
2646;SDS011;1333;50.958;6.770;2024-01-15T00:37:39;21.43;;;12.30;;
2646;SDS011;1333;50.958;6.770;2024-01-15T00:40:05;24.97;;;11.90;;
2646;SDS011;1333;50.958;6.770;2024-01-15T00:42:32;23.43;;;10.77;;
2646;SDS011;1333;50.958;6.770;2024-01-15T00:44:59;20.13;;;11.83;;
2646;SDS011;1333;50.958;6.770;2024-01-15T00:47:24;21.27;;;11.50;;
2646;SDS011;1333;50.958;6.770;2024-01-15T00:49:50;24.80;;;12.87;;
2646;SDS011;1333;50.958;6.770;2024-01-15T00:52:15;29.67;;;11.97;;
2646;SDS011;1333;50.958;6.770;2024-01-15T00:54:41;25.90;;;11.73;;
2646;SDS011;1333;50.958;6.770;2024-01-15T00:57:06;23.90;;;10.90;;
2646;SDS011;1333;50.958;6.770;2024-01-15T00:59:32;29.97;;;13.07;;
2646;SDS011;1333;50.958;6.770;2024-01-15T01:01:57;34.07;;;12.57;;
2646;SDS011;1333;50.958;6.770;2024-01-15T01:04:23;27.90;;;12.00;;
2646;SDS011;1333;50.958;6.770;2024-01-15T01:06:48;31.20;;;11.57;;
2646;SDS011;1333;50.958;6.770;2024-01-15T01:09:14;26.27;;;12.63;;
2646;SDS011;1333;50.958;6.770;2024-01-15T01:11:40;21.77;;;11.63;;
2646;SDS011;1333;50.958;6.770;2024-01-15T01:14:05;20.67;;;12.37;;
2646;SDS011;1333;50.958;6.770;2024-01-15T01:16:31;34.27;;;12.73;;
2646;SDS011;1333;50.958;6.770;2024-01-15T01:19:03;28.53;;;13.47;;
2646;SDS011;1333;50.958;6.770;2024-01-15T01:21:29;32.33;;;14.70;;
2646;SDS011;1333;50.958;6.770;2024-01-15T01:23:55;29.83;;;14.73;;
2646;SDS011;1333;50.958;6.770;2024-01-15T01:26:20;32.00;;;14.70;;
2646;SDS011;1333;50.958;6.770;2024-01-15T01:28:46;31.10;;;15.30;;
2646;SDS011;1333;50.958;6.770;2024-01-15T01:31:11;25.60;;;13.77;;
2646;SDS011;1333;50.958;6.770;2024-01-15T01:33:38;39.53;;;16.13;;
2646;SDS011;1333;50.958;6.770;2024-01-15T01:36:08;26.90;;;11.77;;
2646;SDS011;1333;50.958;6.770;2024-01-15T01:38:34;29.13;;;13.77;;
2646;SDS011;1333;50.958;6.770;2024-01-15T01:41:01;28.93;;;16.57;;
2646;SDS011;1333;50.958;6.770;2024-01-15T01:43:26;26.37;;;12.87;;
2646;SDS011;1333;50.958;6.770;2024-01-15T01:45:52;28.77;;;11.07;;
2646;SDS011;1333;50.958;6.770;2024-01-15T01:48:20;26.83;;;13.30;;
2646;SDS011;1333;50.958;6.770;2024-01-15T01:50:45;28.37;;;12.80;;
2646;SDS011;1333;50.958;6.770;2024-01-15T01:53:11;20.47;;;9.83;;
2646;SDS011;1333;50.958;6.770;2024-01-15T01:55:36;26.60;;;12.10;;
2646;SDS011;1333;50.958;6.770;2024-01-15T01:58:04;25.43;;;12.33;;
2646;SDS011;1333;50.958;6.770;2024-01-15T02:00:30;23.30;;;11.07;;
2646;SDS011;1333;50.958;6.770;2024-01-15T02:02:57;38.93;;;13.47;;
2646;SDS011;1333;50.958;6.770;2024-01-15T02:05:22;27.60;;;12.40;;
2646;SDS011;1333;50.958;6.770;2024-01-15T02:07:48;25.87;;;14.10;;
2646;SDS011;1333;50.958;6.770;2024-01-15T02:10:14;20.53;;;12.47;;
2646;SDS011;1333;50.958;6.770;2024-01-15T02:12:39;27.07;;;11.33;;
2646;SDS011;1333;50.958;6.770;2024-01-15T02:15:05;26.93;;;13.67;;
2646;SDS011;1333;50.958;6.770;2024-01-15T02:17:31;31.03;;;14.13;;
2646;SDS011;1333;50.958;6.770;2024-01-15T02:19:56;31.37;;;13.47;;
2646;SDS011;1333;50.958;6.770;2024-01-15T02:22:22;26.97;;;12.17;;
2646;SDS011;1333;50.958;6.770;2024-01-15T02:24:47;29.40;;;13.73;;
2646;SDS011;1333;50.958;6.770;2024-01-15T02:27:13;29.40;;;14.83;;
2646;SDS011;1333;50.958;6.770;2024-01-15T02:29:39;30.27;;;13.90;;
2646;SDS011;1333;50.958;6.770;2024-01-15T02:32:05;25.37;;;12.30;;
2646;SDS011;1333;50.958;6.770;2024-01-15T02:34:31;29.97;;;15.57;;
2646;SDS011;1333;50.958;6.770;2024-01-15T02:36:57;26.87;;;13.00;;
2646;SDS011;1333;50.958;6.770;2024-01-15T02:39:23;28.93;;;13.37;;
2646;SDS011;1333;50.958;6.770;2024-01-15T02:41:49;26.10;;;12.90;;
2646;SDS011;1333;50.958;6.770;2024-01-15T02:44:15;26.23;;;12.03;;
2646;SDS011;1333;50.958;6.770;2024-01-15T02:46:40;24.13;;;12.57;;
2646;SDS011;1333;50.958;6.770;2024-01-15T02:49:06;30.77;;;12.57;;
2646;SDS011;1333;50.958;6.770;2024-01-15T02:51:31;31.17;;;14.17;;
2646;SDS011;1333;50.958;6.770;2024-01-15T02:53:57;26.27;;;12.20;;
2646;SDS011;1333;50.958;6.770;2024-01-15T02:56:22;30.00;;;14.97;;
2646;SDS011;1333;50.958;6.770;2024-01-15T02:58:48;39.60;;;13.17;;
2646;SDS011;1333;50.958;6.770;2024-01-15T03:01:13;26.23;;;12.73;;
2646;SDS011;1333;50.958;6.770;2024-01-15T03:03:39;29.87;;;14.83;;
2646;SDS011;1333;50.958;6.770;2024-01-15T03:06:05;24.37;;;12.50;;
2646;SDS011;1333;50.958;6.770;2024-01-15T03:08:31;27.37;;;14.63;;
2646;SDS011;1333;50.958;6.770;2024-01-15T03:10:56;32.33;;;12.10;;
2646;SDS011;1333;50.958;6.770;2024-01-15T03:13:22;27.87;;;12.43;;
2646;SDS011;1333;50.958;6.770;2024-01-15T03:15:47;28.20;;;13.90;;
2646;SDS011;1333;50.958;6.770;2024-01-15T03:18:13;24.40;;;12.47;;
2646;SDS011;1333;50.958;6.770;2024-01-15T03:20:38;26.63;;;12.73;;
2646;SDS011;1333;50.958;6.770;2024-01-15T03:23:04;25.83;;;12.07;;
2646;SDS011;1333;50.958;6.770;2024-01-15T03:25:29;27.80;;;14.03;;
2646;SDS011;1333;50.958;6.770;2024-01-15T03:27:55;27.50;;;14.83;;
2646;SDS011;1333;50.958;6.770;2024-01-15T03:30:20;28.20;;;12.43;;
2646;SDS011;1333;50.958;6.770;2024-01-15T03:32:46;21.73;;;11.30;;
2646;SDS011;1333;50.958;6.770;2024-01-15T03:35:12;19.90;;;12.70;;
2646;SDS011;1333;50.958;6.770;2024-01-15T03:37:38;26.47;;;12.90;;
2646;SDS011;1333;50.958;6.770;2024-01-15T03:40:03;33.87;;;13.87;;
2646;SDS011;1333;50.958;6.770;2024-01-15T03:42:29;26.93;;;13.40;;
2646;SDS011;1333;50.958;6.770;2024-01-15T03:44:55;29.67;;;12.33;;
2646;SDS011;1333;50.958;6.770;2024-01-15T03:47:20;29.10;;;14.70;;
2646;SDS011;1333;50.958;6.770;2024-01-15T03:49:46;27.93;;;13.30;;
2646;SDS011;1333;50.958;6.770;2024-01-15T03:52:11;24.73;;;13.77;;
2646;SDS011;1333;50.958;6.770;2024-01-15T03:54:37;31.47;;;14.87;;
2646;SDS011;1333;50.958;6.770;2024-01-15T03:57:02;36.83;;;13.47;;
2646;SDS011;1333;50.958;6.770;2024-01-15T03:59:28;34.93;;;15.07;;
2646;SDS011;1333;50.958;6.770;2024-01-15T04:01:54;23.60;;;12.10;;
2646;SDS011;1333;50.958;6.770;2024-01-15T04:04:19;30.07;;;13.80;;
2646;SDS011;1333;50.958;6.770;2024-01-15T04:06:45;36.93;;;13.50;;
2646;SDS011;1333;50.958;6.770;2024-01-15T04:09:12;25.50;;;13.00;;
2646;SDS011;1333;50.958;6.770;2024-01-15T04:11:38;27.97;;;12.60;;
2646;SDS011;1333;50.958;6.770;2024-01-15T04:14:04;23.70;;;11.23;;
2646;SDS011;1333;50.958;6.770;2024-01-15T04:16:29;24.77;;;11.87;;
2646;SDS011;1333;50.958;6.770;2024-01-15T04:18:55;23.60;;;13.80;;
2646;SDS011;1333;50.958;6.770;2024-01-15T04:21:20;25.47;;;11.87;;
2646;SDS011;1333;50.958;6.770;2024-01-15T04:23:46;24.43;;;10.70;;
2646;SDS011;1333;50.958;6.770;2024-01-15T04:26:11;24.70;;;11.47;;
2646;SDS011;1333;50.958;6.770;2024-01-15T04:28:37;21.47;;;12.27;;
2646;SDS011;1333;50.958;6.770;2024-01-15T04:31:02;24.50;;;12.37;;
2646;SDS011;1333;50.958;6.770;2024-01-15T04:33:28;20.47;;;12.30;;
2646;SDS011;1333;50.958;6.770;2024-01-15T04:35:53;25.93;;;11.47;;
2646;SDS011;1333;50.958;6.770;2024-01-15T04:38:19;21.43;;;10.10;;
2646;SDS011;1333;50.958;6.770;2024-01-15T04:40:44;22.30;;;9.73;;
2646;SDS011;1333;50.958;6.770;2024-01-15T04:43:10;24.03;;;11.10;;
2646;SDS011;1333;50.958;6.770;2024-01-15T04:45:35;19.33;;;9.53;;
2646;SDS011;1333;50.958;6.770;2024-01-15T04:48:01;25.10;;;10.87;;
2646;SDS011;1333;50.958;6.770;2024-01-15T04:50:27;24.20;;;9.53;;
2646;SDS011;1333;50.958;6.770;2024-01-15T04:52:52;19.07;;;10.83;;
2646;SDS011;1333;50.958;6.770;2024-01-15T04:55:18;19.77;;;11.80;;
2646;SDS011;1333;50.958;6.770;2024-01-15T04:57:43;19.80;;;10.30;;
2646;SDS011;1333;50.958;6.770;2024-01-15T05:00:09;24.43;;;11.30;;
2646;SDS011;1333;50.958;6.770;2024-01-15T05:02:35;20.03;;;10.77;;
2646;SDS011;1333;50.958;6.770;2024-01-15T05:05:00;22.80;;;10.97;;
2646;SDS011;1333;50.958;6.770;2024-01-15T05:07:26;30.03;;;10.73;;
2646;SDS011;1333;50.958;6.770;2024-01-15T05:09:51;15.73;;;9.47;;
2646;SDS011;1333;50.958;6.770;2024-01-15T05:12:17;19.97;;;11.20;;
2646;SDS011;1333;50.958;6.770;2024-01-15T05:14:42;16.77;;;9.70;;
2646;SDS011;1333;50.958;6.770;2024-01-15T05:17:08;21.77;;;10.63;;
2646;SDS011;1333;50.958;6.770;2024-01-15T05:19:33;16.10;;;10.40;;
2646;SDS011;1333;50.958;6.770;2024-01-15T05:21:59;14.83;;;8.33;;
2646;SDS011;1333;50.958;6.770;2024-01-15T05:24:24;19.63;;;9.33;;
2646;SDS011;1333;50.958;6.770;2024-01-15T05:26:51;17.77;;;7.87;;
2646;SDS011;1333;50.958;6.770;2024-01-15T05:29:17;15.60;;;9.07;;
2646;SDS011;1333;50.958;6.770;2024-01-15T05:31:43;23.23;;;12.93;;
2646;SDS011;1333;50.958;6.770;2024-01-15T05:34:09;35.40;;;13.20;;
2646;SDS011;1333;50.958;6.770;2024-01-15T05:36:34;13.57;;;8.97;;
2646;SDS011;1333;50.958;6.770;2024-01-15T05:39:00;14.13;;;8.67;;
2646;SDS011;1333;50.958;6.770;2024-01-15T05:41:25;20.93;;;9.03;;
2646;SDS011;1333;50.958;6.770;2024-01-15T05:43:51;14.37;;;7.97;;
2646;SDS011;1333;50.958;6.770;2024-01-15T05:46:17;19.30;;;8.20;;
2646;SDS011;1333;50.958;6.770;2024-01-15T05:48:42;17.83;;;6.73;;
2646;SDS011;1333;50.958;6.770;2024-01-15T05:51:08;17.10;;;7.30;;
2646;SDS011;1333;50.958;6.770;2024-01-15T05:53:33;14.63;;;8.47;;
2646;SDS011;1333;50.958;6.770;2024-01-15T05:55:59;14.97;;;8.73;;
2646;SDS011;1333;50.958;6.770;2024-01-15T05:58:26;15.13;;;9.37;;
2646;SDS011;1333;50.958;6.770;2024-01-15T06:00:51;12.50;;;9.23;;
2646;SDS011;1333;50.958;6.770;2024-01-15T06:03:17;19.77;;;10.37;;
2646;SDS011;1333;50.958;6.770;2024-01-15T06:05:42;27.67;;;11.30;;
2646;SDS011;1333;50.958;6.770;2024-01-15T06:08:08;15.33;;;9.47;;
2646;SDS011;1333;50.958;6.770;2024-01-15T06:10:34;16.73;;;9.53;;
2646;SDS011;1333;50.958;6.770;2024-01-15T06:12:59;16.63;;;9.43;;
2646;SDS011;1333;50.958;6.770;2024-01-15T06:15:25;15.30;;;9.90;;
2646;SDS011;1333;50.958;6.770;2024-01-15T06:17:50;22.83;;;10.10;;
2646;SDS011;1333;50.958;6.770;2024-01-15T06:20:16;17.97;;;9.93;;
2646;SDS011;1333;50.958;6.770;2024-01-15T06:22:41;19.13;;;11.17;;
2646;SDS011;1333;50.958;6.770;2024-01-15T06:25:07;19.70;;;11.13;;
2646;SDS011;1333;50.958;6.770;2024-01-15T06:27:33;18.60;;;11.70;;
2646;SDS011;1333;50.958;6.770;2024-01-15T06:29:59;20.17;;;11.37;;
2646;SDS011;1333;50.958;6.770;2024-01-15T06:32:24;21.30;;;11.83;;
2646;SDS011;1333;50.958;6.770;2024-01-15T06:34:50;18.70;;;11.07;;
2646;SDS011;1333;50.958;6.770;2024-01-15T06:37:15;31.83;;;12.03;;
2646;SDS011;1333;50.958;6.770;2024-01-15T06:39:41;17.33;;;9.10;;
2646;SDS011;1333;50.958;6.770;2024-01-15T06:42:06;15.80;;;10.20;;
2646;SDS011;1333;50.958;6.770;2024-01-15T06:44:32;21.70;;;10.07;;
2646;SDS011;1333;50.958;6.770;2024-01-15T06:46:57;20.30;;;10.07;;
2646;SDS011;1333;50.958;6.770;2024-01-15T06:49:27;18.67;;;12.03;;
2646;SDS011;1333;50.958;6.770;2024-01-15T06:51:53;21.40;;;11.20;;
2646;SDS011;1333;50.958;6.770;2024-01-15T06:54:19;15.83;;;9.23;;
2646;SDS011;1333;50.958;6.770;2024-01-15T06:56:45;23.93;;;12.37;;
2646;SDS011;1333;50.958;6.770;2024-01-15T06:59:10;15.90;;;9.43;;
2646;SDS011;1333;50.958;6.770;2024-01-15T07:01:36;21.77;;;10.40;;
2646;SDS011;1333;50.958;6.770;2024-01-15T07:04:02;19.73;;;9.57;;
2646;SDS011;1333;50.958;6.770;2024-01-15T07:06:28;22.13;;;9.10;;
2646;SDS011;1333;50.958;6.770;2024-01-15T07:08:55;17.20;;;11.77;;
2646;SDS011;1333;50.958;6.770;2024-01-15T07:11:21;18.00;;;11.90;;
2646;SDS011;1333;50.958;6.770;2024-01-15T07:13:46;20.27;;;11.73;;
2646;SDS011;1333;50.958;6.770;2024-01-15T07:16:12;15.33;;;10.87;;
2646;SDS011;1333;50.958;6.770;2024-01-15T07:18:37;21.97;;;10.97;;
2646;SDS011;1333;50.958;6.770;2024-01-15T07:21:03;16.60;;;9.87;;
2646;SDS011;1333;50.958;6.770;2024-01-15T07:23:30;21.77;;;11.83;;
2646;SDS011;1333;50.958;6.770;2024-01-15T07:25:56;16.60;;;9.20;;
2646;SDS011;1333;50.958;6.770;2024-01-15T07:28:22;19.27;;;10.50;;
2646;SDS011;1333;50.958;6.770;2024-01-15T07:30:48;23.00;;;8.60;;
2646;SDS011;1333;50.958;6.770;2024-01-15T07:33:13;20.73;;;9.50;;
2646;SDS011;1333;50.958;6.770;2024-01-15T07:35:39;18.73;;;11.50;;
2646;SDS011;1333;50.958;6.770;2024-01-15T07:38:04;19.97;;;11.17;;
2646;SDS011;1333;50.958;6.770;2024-01-15T07:40:30;18.70;;;11.30;;
2646;SDS011;1333;50.958;6.770;2024-01-15T07:42:55;21.93;;;11.83;;
2646;SDS011;1333;50.958;6.770;2024-01-15T07:45:21;21.43;;;10.63;;
2646;SDS011;1333;50.958;6.770;2024-01-15T07:47:46;23.77;;;11.83;;
2646;SDS011;1333;50.958;6.770;2024-01-15T07:50:12;26.53;;;13.17;;
2646;SDS011;1333;50.958;6.770;2024-01-15T07:52:38;24.10;;;12.67;;
2646;SDS011;1333;50.958;6.770;2024-01-15T07:55:05;22.27;;;12.43;;
2646;SDS011;1333;50.958;6.770;2024-01-15T07:57:31;29.53;;;13.53;;
2646;SDS011;1333;50.958;6.770;2024-01-15T07:59:56;25.77;;;11.73;;
2646;SDS011;1333;50.958;6.770;2024-01-15T08:02:22;22.70;;;12.43;;
2646;SDS011;1333;50.958;6.770;2024-01-15T08:04:47;27.73;;;12.50;;
2646;SDS011;1333;50.958;6.770;2024-01-15T08:07:13;21.07;;;13.63;;
2646;SDS011;1333;50.958;6.770;2024-01-15T08:09:38;29.80;;;13.37;;
2646;SDS011;1333;50.958;6.770;2024-01-15T08:12:04;22.93;;;12.40;;
2646;SDS011;1333;50.958;6.770;2024-01-15T08:14:31;21.20;;;12.03;;
2646;SDS011;1333;50.958;6.770;2024-01-15T08:16:56;25.23;;;13.27;;
2646;SDS011;1333;50.958;6.770;2024-01-15T08:19:22;23.07;;;13.57;;
2646;SDS011;1333;50.958;6.770;2024-01-15T08:21:47;24.20;;;11.17;;
2646;SDS011;1333;50.958;6.770;2024-01-15T08:24:14;21.80;;;11.77;;
2646;SDS011;1333;50.958;6.770;2024-01-15T08:26:40;24.27;;;12.17;;
2646;SDS011;1333;50.958;6.770;2024-01-15T08:29:05;24.37;;;13.33;;
2646;SDS011;1333;50.958;6.770;2024-01-15T08:31:31;22.17;;;11.93;;
2646;SDS011;1333;50.958;6.770;2024-01-15T08:33:56;23.80;;;12.50;;
2646;SDS011;1333;50.958;6.770;2024-01-15T08:36:22;20.03;;;11.03;;
2646;SDS011;1333;50.958;6.770;2024-01-15T08:38:49;24.13;;;10.70;;
2646;SDS011;1333;50.958;6.770;2024-01-15T08:41:14;26.63;;;12.50;;
2646;SDS011;1333;50.958;6.770;2024-01-15T08:43:40;21.60;;;11.27;;
2646;SDS011;1333;50.958;6.770;2024-01-15T08:46:05;17.77;;;10.73;;
2646;SDS011;1333;50.958;6.770;2024-01-15T08:48:32;20.33;;;10.80;;
2646;SDS011;1333;50.958;6.770;2024-01-15T08:50:57;14.20;;;9.37;;
2646;SDS011;1333;50.958;6.770;2024-01-15T08:53:23;20.30;;;11.70;;
2646;SDS011;1333;50.958;6.770;2024-01-15T08:55:48;18.57;;;10.00;;
2646;SDS011;1333;50.958;6.770;2024-01-15T08:58:14;18.17;;;10.47;;
2646;SDS011;1333;50.958;6.770;2024-01-15T09:00:40;15.97;;;9.47;;
2646;SDS011;1333;50.958;6.770;2024-01-15T09:03:05;18.80;;;9.50;;
2646;SDS011;1333;50.958;6.770;2024-01-15T09:05:31;20.07;;;10.37;;
2646;SDS011;1333;50.958;6.770;2024-01-15T09:07:56;15.67;;;8.97;;
2646;SDS011;1333;50.958;6.770;2024-01-15T09:10:22;16.07;;;10.87;;
2646;SDS011;1333;50.958;6.770;2024-01-15T09:12:47;13.63;;;9.33;;
2646;SDS011;1333;50.958;6.770;2024-01-15T09:15:16;12.43;;;8.57;;
2646;SDS011;1333;50.958;6.770;2024-01-15T09:17:41;13.67;;;8.20;;
2646;SDS011;1333;50.958;6.770;2024-01-15T09:20:07;14.27;;;8.80;;
2646;SDS011;1333;50.958;6.770;2024-01-15T09:22:34;11.77;;;8.83;;
2646;SDS011;1333;50.958;6.770;2024-01-15T09:25:00;9.63;;;7.13;;
2646;SDS011;1333;50.958;6.770;2024-01-15T09:27:26;11.63;;;8.03;;
2646;SDS011;1333;50.958;6.770;2024-01-15T09:29:55;9.30;;;7.00;;
2646;SDS011;1333;50.958;6.770;2024-01-15T09:32:20;11.47;;;6.40;;
2646;SDS011;1333;50.958;6.770;2024-01-15T09:34:46;7.27;;;4.57;;
2646;SDS011;1333;50.958;6.770;2024-01-15T09:37:12;7.63;;;5.00;;
2646;SDS011;1333;50.958;6.770;2024-01-15T09:39:39;6.07;;;5.10;;
2646;SDS011;1333;50.958;6.770;2024-01-15T09:42:04;6.83;;;4.20;;
2646;SDS011;1333;50.958;6.770;2024-01-15T09:44:30;6.03;;;4.43;;
2646;SDS011;1333;50.958;6.770;2024-01-15T09:46:56;5.80;;;4.60;;
2646;SDS011;1333;50.958;6.770;2024-01-15T09:49:23;10.70;;;4.70;;
2646;SDS011;1333;50.958;6.770;2024-01-15T09:51:48;10.23;;;5.07;;
2646;SDS011;1333;50.958;6.770;2024-01-15T09:54:14;5.73;;;3.83;;
2646;SDS011;1333;50.958;6.770;2024-01-15T09:56:42;5.53;;;4.57;;
2646;SDS011;1333;50.958;6.770;2024-01-15T09:59:11;5.27;;;3.70;;
2646;SDS011;1333;50.958;6.770;2024-01-15T10:01:41;4.53;;;3.60;;
2646;SDS011;1333;50.958;6.770;2024-01-15T10:04:09;4.67;;;4.27;;
2646;SDS011;1333;50.958;6.770;2024-01-15T10:06:35;8.60;;;5.03;;
2646;SDS011;1333;50.958;6.770;2024-01-15T10:09:01;8.90;;;4.50;;
2646;SDS011;1333;50.958;6.770;2024-01-15T10:11:28;3.50;;;2.90;;
2646;SDS011;1333;50.958;6.770;2024-01-15T10:13:56;5.10;;;4.07;;
2646;SDS011;1333;50.958;6.770;2024-01-15T10:16:22;4.33;;;3.20;;
2646;SDS011;1333;50.958;6.770;2024-01-15T10:18:49;4.50;;;3.70;;
2646;SDS011;1333;50.958;6.770;2024-01-15T10:21:14;5.60;;;3.20;;
2646;SDS011;1333;50.958;6.770;2024-01-15T10:23:40;5.43;;;3.50;;
2646;SDS011;1333;50.958;6.770;2024-01-15T10:26:06;3.27;;;2.97;;
2646;SDS011;1333;50.958;6.770;2024-01-15T10:28:32;3.53;;;3.23;;
2646;SDS011;1333;50.958;6.770;2024-01-15T10:30:58;5.20;;;3.87;;
2646;SDS011;1333;50.958;6.770;2024-01-15T10:33:26;7.10;;;3.43;;
2646;SDS011;1333;50.958;6.770;2024-01-15T10:35:55;5.03;;;3.23;;
2646;SDS011;1333;50.958;6.770;2024-01-15T10:38:25;3.67;;;2.97;;
2646;SDS011;1333;50.958;6.770;2024-01-15T10:40:51;4.53;;;2.50;;
2646;SDS011;1333;50.958;6.770;2024-01-15T10:43:21;4.40;;;2.97;;
2646;SDS011;1333;50.958;6.770;2024-01-15T10:45:48;3.73;;;2.63;;
2646;SDS011;1333;50.958;6.770;2024-01-15T10:48:15;2.60;;;2.00;;
2646;SDS011;1333;50.958;6.770;2024-01-15T10:50:42;4.80;;;3.07;;
2646;SDS011;1333;50.958;6.770;2024-01-15T10:53:13;2.60;;;2.37;;
2646;SDS011;1333;50.958;6.770;2024-01-15T10:55:40;4.40;;;3.03;;
2646;SDS011;1333;50.958;6.770;2024-01-15T10:58:07;3.60;;;2.53;;
2646;SDS011;1333;50.958;6.770;2024-01-15T11:00:36;3.60;;;2.53;;
2646;SDS011;1333;50.958;6.770;2024-01-15T11:03:03;4.10;;;2.50;;
2646;SDS011;1333;50.958;6.770;2024-01-15T11:05:39;2.87;;;2.53;;
2646;SDS011;1333;50.958;6.770;2024-01-15T11:08:07;2.83;;;2.20;;
2646;SDS011;1333;50.958;6.770;2024-01-15T11:13:10;4.37;;;2.60;;
2646;SDS011;1333;50.958;6.770;2024-01-15T11:15:56;5.77;;;3.33;;
2646;SDS011;1333;50.958;6.770;2024-01-15T11:18:22;2.53;;;2.10;;
2646;SDS011;1333;50.958;6.770;2024-01-15T11:23:44;3.73;;;3.33;;
2646;SDS011;1333;50.958;6.770;2024-01-15T11:29:28;5.07;;;3.73;;
2646;SDS011;1333;50.958;6.770;2024-01-15T11:32:08;4.13;;;3.73;;
2646;SDS011;1333;50.958;6.770;2024-01-15T11:37:23;3.57;;;3.23;;
2646;SDS011;1333;50.958;6.770;2024-01-15T11:39:53;6.17;;;3.80;;
2646;SDS011;1333;50.958;6.770;2024-01-15T11:42:20;7.23;;;4.40;;
2646;SDS011;1333;50.958;6.770;2024-01-15T11:44:46;5.50;;;4.50;;
2646;SDS011;1333;50.958;6.770;2024-01-15T11:47:12;5.73;;;4.07;;
2646;SDS011;1333;50.958;6.770;2024-01-15T11:52:29;8.50;;;4.53;;
2646;SDS011;1333;50.958;6.770;2024-01-15T12:00:14;7.60;;;4.93;;
2646;SDS011;1333;50.958;6.770;2024-01-15T12:02:40;8.17;;;6.07;;
2646;SDS011;1333;50.958;6.770;2024-01-15T12:05:11;7.60;;;5.60;;
2646;SDS011;1333;50.958;6.770;2024-01-15T12:07:38;21.13;;;6.00;;
2646;SDS011;1333;50.958;6.770;2024-01-15T12:10:07;7.03;;;5.83;;
2646;SDS011;1333;50.958;6.770;2024-01-15T12:15:25;14.03;;;6.23;;
2646;SDS011;1333;50.958;6.770;2024-01-15T12:17:55;14.20;;;6.60;;
2646;SDS011;1333;50.958;6.770;2024-01-15T12:20:24;9.53;;;5.37;;
2646;SDS011;1333;50.958;6.770;2024-01-15T12:22:50;10.90;;;5.40;;
2646;SDS011;1333;50.958;6.770;2024-01-15T12:25:16;17.53;;;5.80;;
2646;SDS011;1333;50.958;6.770;2024-01-15T12:27:42;14.43;;;5.50;;
2646;SDS011;1333;50.958;6.770;2024-01-15T12:30:10;11.70;;;4.17;;
2646;SDS011;1333;50.958;6.770;2024-01-15T12:32:42;6.83;;;4.30;;
2646;SDS011;1333;50.958;6.770;2024-01-15T12:35:08;18.60;;;5.07;;
2646;SDS011;1333;50.958;6.770;2024-01-15T12:37:35;7.03;;;4.50;;
2646;SDS011;1333;50.958;6.770;2024-01-15T12:40:02;6.23;;;4.00;;
2646;SDS011;1333;50.958;6.770;2024-01-15T12:42:35;8.27;;;4.37;;
2646;SDS011;1333;50.958;6.770;2024-01-15T12:45:01;12.33;;;4.20;;
2646;SDS011;1333;50.958;6.770;2024-01-15T12:47:29;3.33;;;3.00;;
2646;SDS011;1333;50.958;6.770;2024-01-15T12:49:55;10.30;;;4.00;;
2646;SDS011;1333;50.958;6.770;2024-01-15T12:52:22;7.00;;;4.50;;
2646;SDS011;1333;50.958;6.770;2024-01-15T12:54:51;7.13;;;4.80;;
2646;SDS011;1333;50.958;6.770;2024-01-15T12:57:16;6.43;;;3.90;;
2646;SDS011;1333;50.958;6.770;2024-01-15T12:59:43;10.63;;;3.43;;
2646;SDS011;1333;50.958;6.770;2024-01-15T13:02:09;8.20;;;3.87;;
2646;SDS011;1333;50.958;6.770;2024-01-15T13:04:38;6.80;;;2.67;;
2646;SDS011;1333;50.958;6.770;2024-01-15T13:07:05;6.10;;;3.50;;
2646;SDS011;1333;50.958;6.770;2024-01-15T13:09:32;4.57;;;2.87;;
2646;SDS011;1333;50.958;6.770;2024-01-15T13:11:57;7.70;;;3.37;;
2646;SDS011;1333;50.958;6.770;2024-01-15T13:14:23;3.53;;;3.07;;
2646;SDS011;1333;50.958;6.770;2024-01-15T13:16:49;4.83;;;3.40;;
2646;SDS011;1333;50.958;6.770;2024-01-15T13:19:14;4.20;;;2.07;;
2646;SDS011;1333;50.958;6.770;2024-01-15T13:21:40;3.43;;;2.73;;
2646;SDS011;1333;50.958;6.770;2024-01-15T13:24:06;3.87;;;2.27;;
2646;SDS011;1333;50.958;6.770;2024-01-15T13:26:32;4.53;;;1.80;;
2646;SDS011;1333;50.958;6.770;2024-01-15T13:28:59;3.13;;;2.03;;
2646;SDS011;1333;50.958;6.770;2024-01-15T13:31:26;1.93;;;1.77;;
2646;SDS011;1333;50.958;6.770;2024-01-15T13:33:52;2.30;;;1.80;;
2646;SDS011;1333;50.958;6.770;2024-01-15T13:36:18;1.63;;;1.53;;
2646;SDS011;1333;50.958;6.770;2024-01-15T13:38:43;1.60;;;1.50;;
2646;SDS011;1333;50.958;6.770;2024-01-15T13:41:09;2.03;;;1.73;;
2646;SDS011;1333;50.958;6.770;2024-01-15T13:43:34;4.37;;;1.70;;
2646;SDS011;1333;50.958;6.770;2024-01-15T13:46:00;1.80;;;1.70;;
2646;SDS011;1333;50.958;6.770;2024-01-15T13:48:29;4.67;;;1.93;;
2646;SDS011;1333;50.958;6.770;2024-01-15T13:50:55;1.00;;;0.90;;
2646;SDS011;1333;50.958;6.770;2024-01-15T13:53:21;1.70;;;1.13;;
2646;SDS011;1333;50.958;6.770;2024-01-15T13:55:46;1.70;;;1.60;;
2646;SDS011;1333;50.958;6.770;2024-01-15T13:58:12;1.10;;;1.00;;
2646;SDS011;1333;50.958;6.770;2024-01-15T14:00:38;1.93;;;1.20;;
2646;SDS011;1333;50.958;6.770;2024-01-15T14:03:04;3.73;;;1.43;;
2646;SDS011;1333;50.958;6.770;2024-01-15T14:05:30;2.67;;;1.20;;
2646;SDS011;1333;50.958;6.770;2024-01-15T14:07:55;2.37;;;1.53;;
2646;SDS011;1333;50.958;6.770;2024-01-15T14:10:21;1.33;;;1.23;;
2646;SDS011;1333;50.958;6.770;2024-01-15T14:12:46;5.43;;;1.97;;
2646;SDS011;1333;50.958;6.770;2024-01-15T14:15:12;1.60;;;1.20;;
2646;SDS011;1333;50.958;6.770;2024-01-15T14:17:37;2.53;;;1.43;;
2646;SDS011;1333;50.958;6.770;2024-01-15T14:20:03;2.53;;;1.10;;
2646;SDS011;1333;50.958;6.770;2024-01-15T14:22:30;3.43;;;2.77;;
2646;SDS011;1333;50.958;6.770;2024-01-15T14:24:56;1.77;;;1.13;;
2646;SDS011;1333;50.958;6.770;2024-01-15T14:27:21;1.50;;;1.17;;
2646;SDS011;1333;50.958;6.770;2024-01-15T14:29:47;1.10;;;1.00;;
2646;SDS011;1333;50.958;6.770;2024-01-15T14:32:12;2.90;;;1.17;;
2646;SDS011;1333;50.958;6.770;2024-01-15T14:34:38;2.77;;;1.23;;
2646;SDS011;1333;50.958;6.770;2024-01-15T14:37:03;2.43;;;1.20;;
2646;SDS011;1333;50.958;6.770;2024-01-15T14:39:29;1.77;;;1.43;;
2646;SDS011;1333;50.958;6.770;2024-01-15T14:41:57;2.33;;;1.90;;
2646;SDS011;1333;50.958;6.770;2024-01-15T14:44:22;2.50;;;1.40;;
2646;SDS011;1333;50.958;6.770;2024-01-15T14:46:47;9.73;;;1.70;;
2646;SDS011;1333;50.958;6.770;2024-01-15T14:49:13;1.60;;;1.50;;
2646;SDS011;1333;50.958;6.770;2024-01-15T14:51:39;3.27;;;1.53;;
2646;SDS011;1333;50.958;6.770;2024-01-15T14:54:05;2.17;;;1.50;;
2646;SDS011;1333;50.958;6.770;2024-01-15T14:56:30;1.83;;;1.37;;
2646;SDS011;1333;50.958;6.770;2024-01-15T14:58:56;8.83;;;1.80;;
2646;SDS011;1333;50.958;6.770;2024-01-15T15:01:22;2.90;;;1.37;;
2646;SDS011;1333;50.958;6.770;2024-01-15T15:03:48;1.30;;;1.20;;
2646;SDS011;1333;50.958;6.770;2024-01-15T15:06:13;2.00;;;1.57;;
2646;SDS011;1333;50.958;6.770;2024-01-15T15:08:39;2.27;;;1.90;;
2646;SDS011;1333;50.958;6.770;2024-01-15T15:11:05;2.07;;;1.30;;
2646;SDS011;1333;50.958;6.770;2024-01-15T15:13:31;1.60;;;1.30;;